createdAt,value
2019-01-31T00:03:36.024Z,8.20
2019-01-31T00:07:52.764Z,8.27
2019-01-31T00:12:12.945Z,7.70
2019-01-31T00:16:43.783Z,8.07
2019-01-31T00:20:54.699Z,8.40
2019-01-31T00:25:27.500Z,7.77
2019-01-31T00:29:44.007Z,7.60
2019-01-31T00:34:01.859Z,7.70
2019-01-31T00:38:26.076Z,7.23
2019-01-31T00:42:43.023Z,7.47
2019-01-31T00:47:03.179Z,7.27
2019-01-31T00:51:13.850Z,6.93
2019-01-31T00:55:27.699Z,6.83
2019-01-31T00:59:55.384Z,6.97
2019-01-31T01:04:33.753Z,6.53
2019-01-31T01:08:53.930Z,7.00
2019-01-31T01:13:19.775Z,5.53
2019-01-31T01:17:42.816Z,5.27
2019-01-31T01:22:08.377Z,5.90
2019-01-31T01:26:20.290Z,5.30
2019-01-31T01:30:37.138Z,6.53
2019-01-31T01:35:01.323Z,5.10
2019-01-31T01:39:18.881Z,5.60
2019-01-31T01:43:43.696Z,4.77
2019-01-31T01:47:51.815Z,4.77
2019-01-31T01:52:03.028Z,4.90
2019-01-31T01:56:19.719Z,5.37
2019-01-31T02:00:42.632Z,4.70
2019-01-31T02:05:24.957Z,4.67
2019-01-31T02:09:35.888Z,4.47
2019-01-31T02:14:05.060Z,3.63
2019-01-31T02:18:18.969Z,4.00
2019-01-31T02:22:45.308Z,3.87
2019-01-31T02:27:08.459Z,3.47
2019-01-31T02:31:31.495Z,2.97
2019-01-31T02:35:39.644Z,2.90
2019-01-31T02:40:02.970Z,2.90
2019-01-31T02:44:16.776Z,3.13
2019-01-31T02:48:45.483Z,3.10
2019-01-31T02:53:14.677Z,3.03
2019-01-31T02:57:43.796Z,2.40
2019-01-31T03:01:54.469Z,2.80
2019-01-31T03:06:18.916Z,3.30
2019-01-31T03:10:32.723Z,2.90
2019-01-31T03:14:39.062Z,3.13
2019-01-31T03:18:55.964Z,3.30
2019-01-31T03:23:04.054Z,2.90
2019-01-31T03:27:14.994Z,3.03
2019-01-31T03:31:41.455Z,2.77
2019-01-31T03:36:01.561Z,3.30
2019-01-31T03:40:15.326Z,2.60
2019-01-31T03:44:53.432Z,2.70
2019-01-31T03:49:10.272Z,2.20
2019-01-31T03:53:24.243Z,2.43
2019-01-31T03:57:50.554Z,2.60
2019-01-31T04:02:07.173Z,2.70
2019-01-31T04:06:15.288Z,2.60
2019-01-31T04:10:20.102Z,3.00
2019-01-31T04:14:27.333Z,2.80
2019-01-31T04:18:31.389Z,3.43
2019-01-31T04:22:36.203Z,3.00
2019-01-31T04:26:41.020Z,2.90
2019-01-31T04:30:45.859Z,2.47
2019-01-31T04:34:50.680Z,3.10
2019-01-31T04:38:55.502Z,3.07
2019-01-31T04:43:02.469Z,3.17
2019-01-31T04:47:07.381Z,3.37
2019-01-31T04:51:12.166Z,3.00
2019-01-31T04:55:16.985Z,2.93
2019-01-31T04:59:21.812Z,3.20
2019-01-31T05:03:26.637Z,3.50
2019-01-31T05:07:31.531Z,2.83
2019-01-31T05:11:36.374Z,3.20
2019-01-31T05:15:42.134Z,2.87
2019-01-31T05:19:47.016Z,2.83
2019-01-31T05:23:52.121Z,3.00
2019-01-31T05:27:56.898Z,2.80
2019-01-31T05:32:01.741Z,3.07
2019-01-31T05:36:06.542Z,4.03
2019-01-31T05:40:13.683Z,3.93
2019-01-31T05:44:18.498Z,2.93
2019-01-31T05:48:23.318Z,3.43
2019-01-31T05:52:28.138Z,3.13
2019-01-31T05:56:32.935Z,3.67
2019-01-31T06:00:38.022Z,3.27
2019-01-31T06:04:42.829Z,3.50
2019-01-31T06:08:47.648Z,3.90
2019-01-31T06:12:52.463Z,3.67
2019-01-31T06:16:57.407Z,3.40
2019-01-31T06:21:02.211Z,4.07
2019-01-31T06:25:07.121Z,3.40
2019-01-31T06:29:12.011Z,3.53
2019-01-31T06:33:16.939Z,4.23
2019-01-31T06:37:21.773Z,4.50
2019-01-31T06:41:26.561Z,4.00
2019-01-31T06:45:31.379Z,3.37
2019-01-31T06:49:37.343Z,3.33
2019-01-31T06:53:42.163Z,3.40
2019-01-31T06:57:47.080Z,3.10
2019-01-31T07:01:52.031Z,3.93
2019-01-31T07:05:56.858Z,3.73
2019-01-31T07:10:01.679Z,4.40
2019-01-31T07:14:06.508Z,4.50
2019-01-31T07:18:11.335Z,5.00
2019-01-31T07:22:16.151Z,4.57
2019-01-31T07:26:21.218Z,4.70
2019-01-31T07:30:26.851Z,4.20
2019-01-31T07:34:31.813Z,4.30
2019-01-31T07:38:36.636Z,3.17
2019-01-31T07:42:41.437Z,3.47
2019-01-31T07:46:46.299Z,2.80
2019-01-31T07:50:51.387Z,3.13
2019-01-31T07:54:56.475Z,2.80
2019-01-31T07:59:01.615Z,3.00
2019-01-31T08:03:06.836Z,2.90
2019-01-31T08:07:11.927Z,3.20
2019-01-31T08:11:17.065Z,3.53
2019-01-31T08:15:22.204Z,2.50
2019-01-31T08:19:27.315Z,2.77
2019-01-31T08:23:32.424Z,2.40
2019-01-31T08:27:37.505Z,2.40
2019-01-31T08:31:42.600Z,2.70
2019-01-31T08:35:47.688Z,2.30
2019-01-31T08:39:52.780Z,2.97
2019-01-31T08:43:57.883Z,2.30
2019-01-31T08:48:02.952Z,2.80
2019-01-31T08:52:08.047Z,2.90
2019-01-31T08:56:13.153Z,2.87
2019-01-31T09:00:23.259Z,3.03
2019-01-31T09:04:28.471Z,2.80
2019-01-31T09:08:33.643Z,2.50
2019-01-31T09:12:38.735Z,2.90
2019-01-31T09:16:43.840Z,2.50
2019-01-31T09:20:52.242Z,2.10
2019-01-31T09:25:18.352Z,2.30
2019-01-31T09:29:29.644Z,2.23
2019-01-31T09:33:41.175Z,2.43
2019-01-31T09:38:06.223Z,3.00
2019-01-31T09:42:35.841Z,2.33
2019-01-31T09:46:50.780Z,2.57
2019-01-31T09:51:07.832Z,2.70
2019-01-31T09:55:42.441Z,2.67
2019-01-31T09:59:53.659Z,2.40
2019-01-31T10:04:17.216Z,2.37
2019-01-31T10:08:36.872Z,2.43
2019-01-31T10:13:18.034Z,2.53
2019-01-31T10:17:32.057Z,2.47
2019-01-31T10:21:58.036Z,2.60
2019-01-31T10:26:15.336Z,2.57
2019-01-31T10:30:54.229Z,2.63
2019-01-31T10:35:23.683Z,2.70
2019-01-31T10:39:51.745Z,2.57
2019-01-31T10:44:02.640Z,3.03
2019-01-31T10:48:29.197Z,3.57
2019-01-31T10:52:37.568Z,3.27
2019-01-31T10:56:48.615Z,2.90
2019-01-31T11:00:57.227Z,3.83
2019-01-31T11:05:14.294Z,3.60
2019-01-31T11:09:28.275Z,3.20
2019-01-31T11:13:36.636Z,2.43
2019-01-31T11:18:02.875Z,2.13
2019-01-31T11:22:30.007Z,2.77
2019-01-31T11:26:38.372Z,2.13
2019-01-31T11:30:55.151Z,2.53
2019-01-31T11:35:30.487Z,2.50
2019-01-31T11:39:44.839Z,2.17
2019-01-31T11:44:04.962Z,3.27
2019-01-31T11:48:16.271Z,3.10
2019-01-31T11:52:44.020Z,3.57
2019-01-31T11:57:10.073Z,3.27
2019-01-31T12:01:15.180Z,3.37
2019-01-31T12:05:20.300Z,3.63
2019-01-31T12:09:25.390Z,3.47
2019-01-31T12:13:31.471Z,4.07
2019-01-31T12:17:36.658Z,3.37
2019-01-31T12:21:44.388Z,3.93
2019-01-31T12:25:49.507Z,4.07
2019-01-31T12:29:54.633Z,4.23
2019-01-31T12:33:59.718Z,4.13
2019-01-31T12:38:05.057Z,3.73
2019-01-31T12:42:10.152Z,3.43
2019-01-31T12:46:15.748Z,4.37
2019-01-31T12:50:23.035Z,4.07
2019-01-31T12:54:27.860Z,3.80
2019-01-31T12:58:33.902Z,4.67
2019-01-31T13:02:38.897Z,4.47
2019-01-31T13:06:43.723Z,4.50
2019-01-31T13:10:48.541Z,4.10
2019-01-31T13:14:53.336Z,4.80
2019-01-31T13:18:59.249Z,4.03
2019-01-31T13:23:04.080Z,4.90
2019-01-31T13:27:08.970Z,4.67
2019-01-31T13:31:13.790Z,5.43
2019-01-31T13:35:18.656Z,4.87
2019-01-31T13:39:23.665Z,4.87
2019-01-31T13:43:28.472Z,5.03
2019-01-31T13:47:33.296Z,4.80
2019-01-31T13:51:38.232Z,4.33
2019-01-31T13:55:43.051Z,4.93
2019-01-31T13:59:47.849Z,5.20
2019-01-31T14:03:52.674Z,5.13
2019-01-31T14:07:57.661Z,6.10
2019-01-31T14:12:02.520Z,5.30
2019-01-31T14:16:07.356Z,5.13
2019-01-31T14:20:15.600Z,6.20
2019-01-31T14:24:20.465Z,6.60
2019-01-31T14:28:25.315Z,7.53
2019-01-31T14:32:30.527Z,9.17
2019-01-31T14:36:35.563Z,9.30
2019-01-31T14:40:40.388Z,9.87
2019-01-31T17:51:31.692Z,20.17
2019-01-31T17:55:37.772Z,19.77
2019-01-31T17:59:43.431Z,19.23
2019-01-31T18:03:48.418Z,19.50
2019-01-31T18:07:53.217Z,19.73
2019-01-31T18:11:58.192Z,19.97
2019-01-31T18:16:04.218Z,21.90
2019-01-31T18:20:15.128Z,22.77
2019-01-31T18:24:20.616Z,24.93
2019-01-31T18:28:25.748Z,22.87
2019-01-31T18:32:31.564Z,23.77
2019-01-31T18:36:36.550Z,23.10
2019-01-31T18:40:42.097Z,24.27
2019-01-31T18:44:47.868Z,23.83
2019-01-31T18:48:53.242Z,22.97
2019-01-31T18:52:58.837Z,26.07
2019-01-31T18:57:04.923Z,24.77
2019-01-31T19:01:10.839Z,26.47
2019-01-31T19:05:16.460Z,29.13
2019-01-31T19:09:22.217Z,28.80
2019-01-31T19:13:28.040Z,29.33
2019-01-31T19:17:33.927Z,30.33
2019-01-31T19:21:39.915Z,27.13
2019-01-31T19:25:47.322Z,29.70
2019-01-31T19:29:53.292Z,32.80
2019-01-31T19:33:59.386Z,34.43
2019-01-31T19:38:05.711Z,36.33
2019-01-31T19:42:11.550Z,35.53
2019-01-31T19:46:19.333Z,36.17
2019-01-31T19:50:25.757Z,36.87
2019-01-31T19:54:33.422Z,33.33
2019-01-31T19:58:39.505Z,33.60
2019-01-31T20:02:45.536Z,35.20
2019-01-31T20:06:51.974Z,35.87
2019-01-31T20:10:57.768Z,35.37
2019-01-31T20:15:03.459Z,36.07
2019-01-31T20:19:09.533Z,35.13
2019-01-31T20:23:15.829Z,33.30
2019-01-31T20:27:22.809Z,32.57
2019-01-31T20:31:28.992Z,33.37
2019-01-31T20:35:34.892Z,34.13
2019-01-31T20:39:40.948Z,26.63
2019-01-31T20:43:47.156Z,22.10
2019-01-31T20:47:53.381Z,30.20
2019-01-31T20:51:59.348Z,25.73
2019-01-31T20:56:05.415Z,32.97
2019-01-31T21:00:24.335Z,31.70
2019-01-31T21:04:30.737Z,34.07
2019-01-31T21:08:37.108Z,31.77
2019-01-31T21:12:43.165Z,34.17
2019-01-31T21:16:51.685Z,35.43
2019-01-31T21:20:56.775Z,31.37
2019-01-31T21:25:02.531Z,35.53
2019-01-31T21:29:08.423Z,30.77
2019-01-31T21:33:14.091Z,35.03
2019-01-31T21:37:19.432Z,33.47
2019-01-31T21:41:24.414Z,36.50
2019-01-31T21:45:29.402Z,36.13
2019-01-31T21:49:34.360Z,37.70
2019-01-31T21:53:39.185Z,38.53
2019-01-31T21:57:44.016Z,38.53
2019-01-31T22:01:48.886Z,36.43
2019-01-31T22:05:53.800Z,33.97
2019-01-31T22:09:58.623Z,32.80
2019-01-31T22:14:03.455Z,35.17
2019-01-31T22:18:09.474Z,34.47
2019-01-31T22:22:14.280Z,38.53
2019-01-31T22:26:19.241Z,36.13
2019-01-31T22:30:26.956Z,33.63
2019-01-31T22:34:31.973Z,36.90
2019-01-31T22:38:36.812Z,34.00
2019-01-31T22:42:41.653Z,33.00
2019-01-31T22:46:46.486Z,35.17
2019-01-31T22:50:51.476Z,34.10
2019-01-31T22:54:56.317Z,34.30
2019-01-31T22:59:01.212Z,34.97
2019-01-31T23:03:07.115Z,32.23
2019-01-31T23:07:11.983Z,30.40
2019-01-31T23:11:16.811Z,26.00
2019-01-31T23:15:22.095Z,31.00
2019-01-31T23:19:26.956Z,24.27
2019-01-31T23:23:31.792Z,27.87
2019-01-31T23:27:36.624Z,22.37
2019-01-31T23:31:41.576Z,29.37
2019-01-31T23:35:46.388Z,33.13
2019-01-31T23:39:51.232Z,29.50
2019-01-31T23:43:56.065Z,19.40
2019-01-31T23:48:00.897Z,27.77
2019-01-31T23:52:05.760Z,26.13
2019-01-31T23:56:10.575Z,23.30
